Latest Weather Observations for Outer Harbor (Black Pole)

IDS60901

Issued at 6:21 pm CST Friday 28 July 2017 (issued every 10 minutes, with the page automatically refreshed every 10 minutes)

About weather observations | Map of Adelaide area stations | Latest observations for Adelaide area | Other Formats
Station Details ID: 023052 Name: BLACK POLE Lat: -34.73 Lon: 138.47 Height: 6.27 m
Data from the previous 72 hours. | See also: Recent months for locations in South Australia
Date/Time
CST
Temp
°C
App
Temp
°C
Dew
Point
°C
Rel
Hum
%
Delta-T
°C
Wind Press
QNH
hPa
Press
MSL
hPa
Rain since
9am
mm
Dir  Spd
km/h
Gust
km/h
Spd
kts
Gust
kts
28/06:00pm - - - - - NE 22 26 12 14 - - -
28/05:30pm - - - - - NE 17 19 9 10 - - -
28/05:00pm - - - - - N 9 17 5 9 - - -
28/04:30pm - - - - - NNW 9 17 5 9 - - -
28/04:00pm - - - - - N 19 22 10 12 - - -
28/03:30pm - - - - - N 24 30 13 16 - - -
28/03:00pm - - - - - NNW 9 19 5 10 - - -
28/02:30pm - - - - - N 15 20 8 11 - - -
28/02:00pm - - - - - N 20 24 11 13 - - -
28/01:30pm - - - - - NNE 20 28 11 15 - - -
28/01:00pm - - - - - NNE 19 24 10 13 - - -
28/12:30pm - - - - - NNE 22 28 12 15 - - -
28/12:00pm - - - - - NNE 19 24 10 13 - - -
28/11:30am - - - - - NNE 19 20 10 11 - - -
28/11:00am - - - - - NNE 17 20 9 11 - - -
28/10:30am - - - - - NE 17 20 9 11 - - -
28/10:00am - - - - - NNE 15 19 8 10 - - -
28/09:30am - - - - - NNE 17 19 9 10 - - -
28/09:00am - - - - - N 13 17 7 9 - - -
28/08:30am - - - - - NNE 15 19 8 10 - - -
28/08:00am - - - - - NNE 15 19 8 10 - - -
28/07:30am - - - - - NNE 17 20 9 11 - - -
28/07:00am - - - - - NNE 19 22 10 12 - - -
28/06:30am - - - - - NNE 15 19 8 10 - - -
28/06:00am - - - - - NE 15 17 8 9 - - -
28/05:30am - - - - - NE 11 13 6 7 - - -
28/05:00am - - - - - NNE 11 15 6 8 - - -
28/04:30am - - - - - NE 11 15 6 8 - - -
28/04:00am - - - - - NNE 13 19 7 10 - - -
28/03:30am - - - - - WNW 13 15 7 8 - - -
28/03:00am - - - - - W 15 19 8 10 - - -
28/02:30am - - - - - WNW 17 19 9 10 - - -
28/02:00am - - - - - W 17 20 9 11 - - -
28/01:30am - - - - - W 17 22 9 12 - - -
28/01:00am - - - - - W 17 19 9 10 - - -
28/12:30am - - - - - W 19 20 10 11 - - -
28/12:00am - - - - - W 17 20 9 11 - - -
 
Date/Time
CST
Temp
°C
App
Temp
°C
Dew
Point
°C
Rel
Hum
%
Delta-T
°C
Wind Press
QNH
hPa
Press
MSL
hPa
Rain since
9am
mm
Dir  Spd
km/h
Gust
km/h
Spd
kts
Gust
kts
27/11:30pm - - - - - W 19 22 10 12 - - -
27/11:00pm - - - - - WNW 19 20 10 11 - - -
27/10:30pm - - - - - W 17 20 9 11 - - -
27/10:00pm - - - - - W 19 20 10 11 - - -
27/09:30pm - - - - - W 22 30 12 16 - - -
27/09:00pm - - - - - W 26 30 14 16 - - -
27/08:30pm - - - - - WSW 24 30 13 16 - - -
27/08:00pm - - - - - WSW 22 28 12 15 - - -
27/07:30pm - - - - - W 26 30 14 16 - - -
27/07:00pm - - - - - WSW 28 33 15 18 - - -
27/06:30pm - - - - - WSW 24 30 13 16 - - -
27/06:00pm - - - - - WSW 30 35 16 19 - - -
27/05:30pm - - - - - W 28 33 15 18 - - -
27/05:00pm - - - - - WNW 20 30 11 16 - - -
27/04:30pm - - - - - NW 19 22 10 12 - - -
27/04:00pm - - - - - NW 19 26 10 14 - - -
27/03:30pm - - - - - NW 24 32 13 17 - - -
27/03:00pm - - - - - NW 22 24 12 13 - - -
27/02:30pm - - - - - NNW 22 26 12 14 - - -
27/02:00pm - - - - - NNW 20 30 11 16 - - -
27/01:30pm - - - - - N 26 32 14 17 - - -
27/01:00pm - - - - - N 22 30 12 16 - - -
27/12:30pm - - - - - NW 15 24 8 13 - - -
27/12:00pm - - - - - SW 13 24 7 13 - - -
27/11:46am - - - - - SW 35 78 19 42 - - -
27/11:39am - - - - - NNW 30 69 16 37 - - -
27/11:38am - - - - - NNW 26 54 14 29 - - -
27/11:30am - - - - - NNE 28 33 15 18 - - -
27/11:00am - - - - - NNE 24 30 13 16 - - -
27/10:30am - - - - - NNE 20 26 11 14 - - -
27/10:00am - - - - - NNE 20 28 11 15 - - -
27/09:30am - - - - - NE 19 24 10 13 - - -
27/09:00am - - - - - NE 22 32 12 17 - - -
27/08:30am - - - - - NE 22 26 12 14 - - -
27/08:00am - - - - - NE 22 26 12 14 - - -
27/07:30am - - - - - NNE 24 28 13 15 - - -
27/07:00am - - - - - NNE 24 28 13 15 - - -
27/06:30am - - - - - NE 24 28 13 15 - - -
27/06:00am - - - - - NE 22 26 12 14 - - -
27/05:30am - - - - - NNE 22 28 12 15 - - -
27/05:00am - - - - - NE 24 26 13 14 - - -
27/04:30am - - - - - NE 20 24 11 13 - - -
27/04:00am - - - - - NE 20 24 11 13 - - -
27/03:30am - - - - - NE 20 24 11 13 - - -
27/03:00am - - - - - NE 22 24 12 13 - - -
27/02:30am - - - - - NE 20 24 11 13 - - -
27/02:00am - - - - - NE 20 24 11 13 - - -
27/01:30am - - - - - NE 19 24 10 13 - - -
27/01:00am - - - - - NE 17 20 9 11 - - -
27/12:30am - - - - - NE 19 20 10 11 - - -
27/12:00am - - - - - NE 19 20 10 11 - - -
 
Date/Time
CST
Temp
°C
App
Temp
°C
Dew
Point
°C
Rel
Hum
%
Delta-T
°C
Wind Press
QNH
hPa
Press
MSL
hPa
Rain since
9am
mm
Dir  Spd
km/h
Gust
km/h
Spd
kts
Gust
kts
26/11:30pm - - - - - NE 19 22 10 12 - - -
26/11:00pm - - - - - NE 19 24 10 13 - - -
26/10:30pm - - - - - NNE 19 20 10 11 - - -
26/10:00pm - - - - - NNE 19 22 10 12 - - -
26/09:30pm - - - - - NE 15 19 8 10 - - -
26/09:00pm - - - - - NE 11 13 6 7 - - -
26/08:30pm - - - - - ENE 11 13 6 7 - - -
26/08:00pm - - - - - E 7 7 4 4 - - -
26/07:30pm - - - - - CALM 0 0 0 0 - - -
26/07:00pm - - - - - CALM 0 0 0 0 - - -
26/06:30pm - - - - - CALM 0 2 0 1 - - -
26/06:00pm - - - - - SSW 2 2 1 1 - - -
26/05:30pm - - - - - W 2 4 1 2 - - -
26/05:00pm - - - - - W 2 2 1 1 - - -
26/04:30pm - - - - - W 2 2 1 1 - - -
26/04:00pm - - - - - CALM 0 2 0 1 - - -
26/03:30pm - - - - - WNW 2 4 1 2 - - -
26/03:00pm - - - - - WNW 2 4 1 2 - - -
26/02:30pm - - - - - WNW 6 7 3 4 - - -
26/02:00pm - - - - - W 6 7 3 4 - - -
26/01:30pm - - - - - W 6 6 3 3 - - -
26/01:00pm - - - - - W 7 9 4 5 - - -
26/12:30pm - - - - - W 6 9 3 5 - - -
26/12:00pm - - - - - W 9 11 5 6 - - -
26/11:30am - - - - - W 9 9 5 5 - - -
26/11:00am - - - - - WSW 9 13 5 7 - - -
26/10:30am - - - - - CALM 0 2 0 1 - - -
26/10:00am - - - - - WSW 7 11 4 6 - - -
26/09:30am - - - - - WSW 20 24 11 13 - - -
26/09:00am - - - - - WSW 13 17 7 9 - - -
26/08:30am - - - - - WSW 20 24 11 13 - - -
26/08:00am - - - - - W 15 19 8 10 - - -
26/07:30am - - - - - W 17 20 9 11 - - -
26/07:00am - - - - - W 15 19 8 10 - - -
26/06:30am - - - - - W 17 19 9 10 - - -
26/06:00am - - - - - W 17 20 9 11 - - -
26/05:30am - - - - - W 15 17 8 9 - - -
26/05:00am - - - - - W 20 24 11 13 - - -
26/04:30am - - - - - W 20 24 11 13 - - -
26/04:00am - - - - - W 22 28 12 15 - - -
26/03:30am - - - - - W 22 24 12 13 - - -
26/03:00am - - - - - W 19 22 10 12 - - -
26/02:30am - - - - - W 22 28 12 15 - - -
26/02:00am - - - - - W 26 32 14 17 - - -
26/01:30am - - - - - WNW 22 24 12 13 - - -
26/01:00am - - - - - WNW 20 26 11 14 - - -
26/12:30am - - - - - NW 17 19 9 10 - - -
26/12:00am - - - - - NNW 19 22 10 12 - - -
 
Date/Time
CST
Temp
°C
App
Temp
°C
Dew
Point
°C
Rel
Hum
%
Delta-T
°C
Wind Press
QNH
hPa
Press
MSL
hPa
Rain since
9am
mm
Dir  Spd
km/h
Gust
km/h
Spd
kts
Gust
kts
25/11:30pm - - - - - NNW 19 22 10 12 - - -
25/11:00pm - - - - - NNW 20 24 11 13 - - -
25/10:30pm - - - - - NW 24 28 13 15 - - -
25/10:00pm - - - - - NW 22 28 12 15 - - -
25/09:30pm - - - - - NNW 19 22 10 12 - - -
25/09:00pm - - - - - NW 17 20 9 11 - - -
25/08:30pm - - - - - NW 19 20 10 11 - - -
25/08:00pm - - - - - NW 19 24 10 13 - - -
25/07:30pm - - - - - NW 26 39 14 21 - - -
25/07:00pm - - - - - NNW 22 28 12 15 - - -
25/06:30pm - - - - - N 17 22 9 12 - - -

Latest Capital City Observations: Canberra | Sydney | Melbourne | Brisbane | Adelaide | Perth | Hobart | Darwin

Other Formats:

Comma delimited format used in spreadsheet applications
http://www.bom.gov.au/fwo/IDS60901/IDS60901.95675.axf

JavaScript Object Notation format (JSON) in row-major order
http://www.bom.gov.au/fwo/IDS60901/IDS60901.95675.json